Chagrin Falls, Ohio
Current Conditions -  °F | °C
As of 8:45 PM on Wednesday 22 Oct 2014 (Local Time) from KCGF Reporting Station
Overcast Overcast  
Wind Chill: 50°   Ceiling: 3500
Heat Index: 50°   Visibility: 20mi
Dew Point: 46°   Wind: 12mph
Humidity: 87%   Direction: 360°N
Pressure: 30.24"   Gusts: NA
Location:  41.43°N, 81.39°W
Report Text: KCGF 230045Z 36010KT 20SM BKN035 OVC080 10/08 A3024
Loading
Personal Weather Stations






























Interactive Weather Map
Tropical Storm Tracking
New forecast layout! Learn more

10-Day Weather Forecast

Advertisements
Track Severe Weather on mobile